Airfield :
LOGIN :

Register | Disclaimer

   EN    FR    IT 

 










Legend :    VFR   Marginal VFR   IFR   Intensive IFR   Very Intensive IFR
Visi :
Ceiling :
>= 8 km
>= 3000ft
5 to 8 km
1000 to 3000 ft
1500m to 5 km
500 to 1000 ft
800 to 1500m
200 to 500 ft
< 800m
< 200 ft
Symbols :   Thunderstorms  Fog  Heavy snow  Heavy precipitations  Wind > 20 kt
SIGMETs :     Misc.  Thunderstorms  Icing  Turbulence  Mountain Waves  Volcanic Ashes







- Airport Elevation : 74 ft
- IATA code : EIN


EHEH - Eindhoven

CURRENT METAR :
  • 191042Z AUTO 25012KT 220V290 9999 BKN018 BKN023 BKN027 10/05 Q1019 WHT 23012KT 9999 SCT020 SCT025

EXPIRED METARs :
  • 191036Z AUTO 24012KT 210V290 9999 SCT017 SCT024 09/05 Q1019 WHT 23012KT 9999 SCT020 SCT025
  • 191025Z AUTO 24013KT 200V270 9999 SCT016 SCT024 08/04 Q1019 WHT 23012KT 9999 SCT016 SCT025
  • 191011Z AUTO 24012KT 220V300 9999 BKN016 10/05 Q1019 WHT 23012KT 9999 FEW014 SCT016
  • 191007Z AUTO 24012KT 210V300 9999 SCT016 09/05 Q1019 WHT 23012KT 9999 FEW014 SCT016
  • 190955Z AUTO 24011KT 190V270 9999 FEW014 08/05 Q1019 BLU 23012KT 9999 FEW014 SCT016
  • 190937Z AUTO 23012KT 210V270 9999 FEW012 08/05 Q1019 BLU 23012KT 9999 FEW012 SCT014
  • 190925Z AUTO 24011KT 190V280 9999 FEW011 SCT014 08/05 Q1019 GRN 22012KT 9999 FEW010 SCT012
  • 190856Z AUTO 23013KT 200V270 9999 SCT010 BKN012 08/06 Q1019 GRN 22012KT 9999 FEW010 SCT012
  • 190855Z AUTO 23013KT 200V260 9999 FEW010 SCT012 07/05 Q1019 GRN 22010KT 9999 FEW008 SCT010
  • 190844Z AUTO 23013KT 200V260 9000 BR FEW010 07/05 Q1018 BLU 22010KT 9999 FEW008 SCT010
  • 190833Z AUTO 22010KT 8000 BR FEW008 07/06 Q1018 BLU 22010KT CAVOK TEMPO SCT008
  • 190825Z AUTO 22010KT 200V260 8000 BR NCD 07/05 Q1018 BLU 22010KT CAVOK TEMPO SCT008
  • 190819Z AUTO 22011KT 190V260 8000 BR FEW008 07/05 Q1018 BLU 22010KT CAVOK TEMPO SCT008
  • 190808Z AUTO 22009KT 7000 BR FEW007 06/05 Q1018 WHT 22009KT CAVOK TEMPO 6000 SCT007
  • 190755Z AUTO 22010KT 6000 BR BKN007 BKN008 06/05 Q1018 GRN 22009KT CAVOK TEMPO 6000 SCT007
  • 190747Z AUTO 22008KT 6000 BR BKN007 BKN008 06/05 Q1018 GRN 22009KT CAVOK TEMPO 6000 SCT007

TAF TAF EHEH
Valid from the 19 at 06:00 until the 20 at 12:00 UTC


190544Z 1906/2012 23008KT CAVOK
PROB30
TEMPO 1906/1909 FEW005 SCT008
PROB40
TEMPO 1909/1911 SCT012
TEMPO 1909/1917 24010G22KT
BECMG 1910/1912 SCT020
No reported NOTAMs for that airfield.



MET'MAP, your aeronautical weather chart ! - Copyright ORBIFLY December 2007 - Disclaimer

ORBIFLY MET'MAP TEAM :

Programming & Development : Alexandra Zaïnal
Concept & Development : Baudouin d'Aumeries
Co-Development & Prog : Marc-Olivier Méhu
Technical & hardware support : Manuel Goepfert

Contact : metmap@orbifly.com




SOURCES & CREDITS :

   NOAA